createdAt,value
2017-12-03T00:01:35.610Z,0.51
2017-12-03T00:04:03.087Z,0.65
2017-12-03T00:06:30.626Z,0.51
2017-12-03T00:08:58.116Z,0.62
2017-12-03T00:11:25.600Z,0.56
2017-12-03T00:13:53.131Z,0.63
2017-12-03T00:16:20.667Z,0.72
2017-12-03T00:18:48.165Z,0.56
2017-12-03T00:21:15.655Z,0.52
2017-12-03T00:23:43.136Z,0.42
2017-12-03T00:26:10.714Z,0.43
2017-12-03T00:28:38.220Z,0.31
2017-12-03T00:31:05.710Z,0.37
2017-12-03T00:33:33.236Z,0.42
2017-12-03T00:36:00.818Z,0.49
2017-12-03T00:38:28.324Z,0.50
2017-12-03T00:40:55.829Z,0.57
2017-12-03T00:43:23.325Z,0.47
2017-12-03T00:45:50.834Z,0.57
2017-12-03T00:48:18.325Z,0.57
2017-12-03T00:50:45.801Z,0.67
2017-12-03T00:53:13.275Z,0.53
2017-12-03T00:55:40.805Z,0.51
2017-12-03T00:58:08.314Z,0.57
2017-12-03T01:00:35.819Z,0.53
2017-12-03T01:03:03.316Z,0.53
2017-12-03T01:05:30.773Z,0.58
2017-12-03T01:07:58.278Z,0.41
2017-12-03T01:10:32.283Z,0.39
2017-12-03T01:12:59.784Z,0.37
2017-12-03T01:15:27.256Z,0.32
2017-12-03T01:17:54.729Z,0.42
2017-12-03T01:20:22.292Z,0.37
2017-12-03T01:22:49.916Z,0.37
2017-12-03T01:25:17.700Z,0.41
2017-12-03T01:27:45.213Z,0.42
2017-12-03T01:30:12.675Z,0.40
2017-12-03T01:32:40.165Z,0.32
2017-12-03T01:35:08.500Z,0.14
2017-12-03T01:37:35.967Z,0.02
2017-12-03T01:40:03.486Z,0.05
2017-12-03T01:42:31.639Z,0.14
2017-12-03T01:44:59.127Z,0.00
2017-12-03T01:47:26.670Z,0.04
2017-12-03T01:49:54.175Z,-0.14
2017-12-03T01:52:22.687Z,-0.10
2017-12-03T01:54:50.187Z,-0.16
2017-12-03T01:57:17.703Z,-0.10
2017-12-03T01:59:45.205Z,-0.07
2017-12-03T02:02:12.780Z,-0.06
2017-12-03T02:04:40.280Z,-0.09
2017-12-03T02:07:07.790Z,-0.21
2017-12-03T02:09:35.258Z,-0.17
2017-12-03T02:12:02.739Z,-0.15
2017-12-03T02:14:30.247Z,-0.21
2017-12-03T02:16:57.775Z,-0.13
2017-12-03T02:19:26.152Z,-0.13
2017-12-03T02:21:53.635Z,-0.16
2017-12-03T02:24:21.125Z,-0.26
2017-12-03T02:26:48.665Z,-0.30
2017-12-03T02:29:17.180Z,-0.20
2017-12-03T02:31:44.669Z,-0.25
2017-12-03T02:34:12.202Z,-0.23
2017-12-03T02:36:39.669Z,-0.23
2017-12-03T02:39:07.167Z,-0.28
2017-12-03T02:41:34.664Z,-0.30
2017-12-03T02:44:02.133Z,-0.22
2017-12-03T02:46:29.623Z,-0.16
2017-12-03T02:48:57.148Z,-0.23
2017-12-03T02:51:24.665Z,-0.20
2017-12-03T02:53:52.167Z,-0.24
2017-12-03T02:56:19.657Z,-0.18
2017-12-03T02:58:47.158Z,-0.20
2017-12-03T03:01:14.668Z,-0.21
2017-12-03T03:03:42.216Z,-0.10
2017-12-03T03:06:09.758Z,-0.05
2017-12-03T03:08:37.223Z,0.03
2017-12-03T03:11:04.685Z,-0.04
2017-12-03T03:13:32.183Z,0.00
2017-12-03T03:15:59.664Z,0.03
2017-12-03T03:18:27.143Z,-0.05
2017-12-03T03:20:54.630Z,0.12
2017-12-03T03:23:22.141Z,0.09
2017-12-03T03:25:49.875Z,0.09
2017-12-03T03:28:17.490Z,0.06
2017-12-03T03:30:44.964Z,0.06
2017-12-03T03:33:12.442Z,0.11
2017-12-03T03:35:39.951Z,0.25
2017-12-03T03:38:07.444Z,0.19
2017-12-03T03:40:34.907Z,0.21
2017-12-03T03:43:02.371Z,0.25
2017-12-03T03:45:29.872Z,0.08
2017-12-03T03:47:57.372Z,0.18
2017-12-03T03:50:24.833Z,0.21
2017-12-03T03:52:52.314Z,0.09
2017-12-03T03:55:20.575Z,0.06
2017-12-03T03:57:48.035Z,0.15
2017-12-03T04:00:15.559Z,0.17
2017-12-03T04:02:43.031Z,0.13
2017-12-03T04:05:10.512Z,0.32
2017-12-03T04:07:38.131Z,0.28
2017-12-03T04:10:05.603Z,0.11
2017-12-03T04:12:33.111Z,0.31
2017-12-03T04:15:00.602Z,0.19
2017-12-03T04:17:28.086Z,0.23
2017-12-03T04:19:55.586Z,0.26
2017-12-03T04:22:23.148Z,0.16
2017-12-03T04:24:50.620Z,0.31
2017-12-03T04:27:18.140Z,0.31
2017-12-03T04:29:45.607Z,0.24
2017-12-03T04:32:13.157Z,0.39
2017-12-03T04:34:40.640Z,0.40
2017-12-03T04:37:08.093Z,0.42
2017-12-03T04:39:35.600Z,0.44
2017-12-03T04:42:03.076Z,0.36
2017-12-03T04:44:30.573Z,0.42
2017-12-03T04:46:58.036Z,0.42
2017-12-03T04:49:25.496Z,0.46
2017-12-03T04:51:52.998Z,0.44
2017-12-03T04:54:20.515Z,0.46
2017-12-03T04:56:47.998Z,0.48
2017-12-03T04:59:15.497Z,0.47
2017-12-03T05:01:42.973Z,0.49
2017-12-03T05:04:10.438Z,0.44
2017-12-03T05:06:37.914Z,0.58
2017-12-03T05:09:05.720Z,0.60
2017-12-03T05:11:33.210Z,0.52
2017-12-03T05:14:00.676Z,0.51
2017-12-03T05:16:28.140Z,0.52
2017-12-03T05:18:55.635Z,0.75
2017-12-03T05:21:23.098Z,0.67
2017-12-03T05:23:50.563Z,0.60
2017-12-03T05:26:18.040Z,0.65
2017-12-03T05:28:45.498Z,0.68
2017-12-03T05:31:12.967Z,0.71
2017-12-03T05:33:40.448Z,0.71
2017-12-03T05:36:07.960Z,0.65
2017-12-03T05:38:35.427Z,0.68
2017-12-03T05:41:02.911Z,0.75
2017-12-03T05:43:30.407Z,0.70
2017-12-03T05:45:58.096Z,0.75
2017-12-03T05:48:25.571Z,0.84
2017-12-03T05:50:53.024Z,0.86
2017-12-03T05:53:20.504Z,0.89
2017-12-03T05:55:47.984Z,0.87
2017-12-03T05:58:15.439Z,0.89
2017-12-03T06:00:42.933Z,0.92
2017-12-03T06:03:10.416Z,0.91
2017-12-03T06:05:37.964Z,0.90
2017-12-03T06:08:05.457Z,0.82
2017-12-03T06:10:33.063Z,0.81
2017-12-03T06:13:00.523Z,0.82
2017-12-03T06:15:28.037Z,0.80
2017-12-03T06:17:55.548Z,0.83
2017-12-03T06:20:23.026Z,0.95
2017-12-03T06:22:50.536Z,0.85
2017-12-03T06:25:18.016Z,1.00
2017-12-03T06:27:45.497Z,1.10
2017-12-03T06:30:12.987Z,1.08
2017-12-03T06:32:40.524Z,0.96
2017-12-03T06:35:08.006Z,0.89
2017-12-03T06:37:35.483Z,0.92
2017-12-03T06:40:03.004Z,0.92
2017-12-03T06:42:30.500Z,0.93
2017-12-03T06:44:58.043Z,0.79
2017-12-03T06:47:25.569Z,0.93
2017-12-03T06:49:53.092Z,0.90
2017-12-03T06:52:20.577Z,0.92
2017-12-03T06:54:48.054Z,0.89
2017-12-03T06:57:16.375Z,1.02
2017-12-03T06:59:43.869Z,0.99
2017-12-03T07:02:11.352Z,0.99
2017-12-03T07:04:38.835Z,0.84
2017-12-03T07:07:06.308Z,0.99
2017-12-03T07:09:34.764Z,0.96
2017-12-03T07:12:02.266Z,0.96
2017-12-03T07:14:29.889Z,1.00
2017-12-03T07:16:57.392Z,1.03
2017-12-03T07:19:24.869Z,1.12
2017-12-03T07:21:52.486Z,1.28
2017-12-03T07:24:19.989Z,1.25
2017-12-03T07:26:47.475Z,1.41
2017-12-03T07:29:14.962Z,1.39
2017-12-03T07:31:42.541Z,1.49
2017-12-03T07:34:10.012Z,1.62
2017-12-03T07:36:37.484Z,1.55
2017-12-03T07:39:04.972Z,1.46
2017-12-03T07:41:32.540Z,1.43
2017-12-03T07:44:00.099Z,1.54
2017-12-03T07:46:27.574Z,1.58
2017-12-03T07:48:55.118Z,1.67
2017-12-03T07:51:22.714Z,1.68
2017-12-03T07:53:50.199Z,1.58
2017-12-03T07:56:17.692Z,1.60
2017-12-03T07:58:45.180Z,1.71
2017-12-03T08:01:12.758Z,1.69
2017-12-03T08:03:40.258Z,1.68
2017-12-03T08:06:07.775Z,1.68
2017-12-03T08:08:35.270Z,1.85
2017-12-03T08:11:02.763Z,1.93
2017-12-03T08:13:30.291Z,1.88
2017-12-03T08:15:57.795Z,1.95
2017-12-03T08:18:25.696Z,1.86
2017-12-03T08:20:53.295Z,1.91
2017-12-03T08:23:20.796Z,1.96
2017-12-03T08:25:48.270Z,2.03
2017-12-03T08:28:16.080Z,1.95
2017-12-03T08:30:43.625Z,2.05
2017-12-03T08:33:11.115Z,1.96
2017-12-03T08:35:38.584Z,1.76
2017-12-03T08:38:06.088Z,1.81
2017-12-03T08:40:33.682Z,1.81
2017-12-03T08:43:01.186Z,1.78
2017-12-03T08:45:28.737Z,1.61
2017-12-03T08:47:56.224Z,1.63
2017-12-03T08:50:23.684Z,1.58
2017-12-03T08:52:51.145Z,1.72
2017-12-03T08:55:18.635Z,1.70
2017-12-03T08:57:46.139Z,1.68
2017-12-03T09:00:13.614Z,1.72
2017-12-03T09:02:41.103Z,1.66
2017-12-03T09:05:08.646Z,1.65
2017-12-03T09:07:36.187Z,1.58
2017-12-03T09:10:03.662Z,1.60
2017-12-03T09:12:31.159Z,1.66
2017-12-03T09:14:59.276Z,1.62
2017-12-03T09:17:26.791Z,1.65
2017-12-03T09:19:54.298Z,1.71
2017-12-03T09:22:21.816Z,1.85
2017-12-03T09:24:49.331Z,1.83
2017-12-03T09:27:16.823Z,1.95
2017-12-03T09:29:44.344Z,1.87
2017-12-03T09:32:11.819Z,1.98
2017-12-03T09:34:39.302Z,2.14
2017-12-03T09:37:07.326Z,2.13
2017-12-03T09:39:34.791Z,2.20
2017-12-03T09:42:02.308Z,2.24
2017-12-03T09:44:29.837Z,2.21
2017-12-03T09:46:57.300Z,2.27
2017-12-03T09:49:24.776Z,2.38
2017-12-03T09:51:52.275Z,2.22
2017-12-03T09:54:19.933Z,2.26
2017-12-03T09:56:47.435Z,2.13
2017-12-03T09:59:14.948Z,2.20
2017-12-03T10:01:42.424Z,2.34
2017-12-03T10:04:09.942Z,2.59
2017-12-03T10:06:37.438Z,2.58
2017-12-03T10:09:04.997Z,2.52
2017-12-03T10:11:32.472Z,2.39
2017-12-03T10:13:59.977Z,2.57
2017-12-03T10:16:27.462Z,2.42
2017-12-03T10:18:54.920Z,2.45
2017-12-03T10:21:22.454Z,2.58
2017-12-03T10:23:49.944Z,2.63
2017-12-03T10:26:17.498Z,2.61
2017-12-03T10:28:44.976Z,2.66
2017-12-03T10:31:12.711Z,2.67
2017-12-03T10:33:40.198Z,2.67
2017-12-03T10:36:07.728Z,2.63
2017-12-03T10:38:35.192Z,2.67
2017-12-03T10:41:02.670Z,2.74
2017-12-03T10:43:30.343Z,2.75
2017-12-03T10:45:57.874Z,2.77
2017-12-03T10:48:25.357Z,2.79
2017-12-03T10:50:52.844Z,2.87
2017-12-03T10:53:20.508Z,2.73
2017-12-03T10:55:47.971Z,2.79
2017-12-03T10:58:15.432Z,3.00
2017-12-03T11:00:42.972Z,3.13
2017-12-03T11:03:10.513Z,3.07
2017-12-03T11:05:38.008Z,3.05
2017-12-03T11:08:05.479Z,2.96
2017-12-03T11:10:32.957Z,2.96
2017-12-03T11:13:00.519Z,2.88
2017-12-03T11:15:28.017Z,3.01
2017-12-03T11:17:55.578Z,3.11
2017-12-03T11:20:23.092Z,3.08
2017-12-03T11:22:50.590Z,3.01
2017-12-03T11:25:18.082Z,2.93
2017-12-03T11:27:45.576Z,3.04
2017-12-03T11:30:13.034Z,2.98
2017-12-03T11:32:40.553Z,3.03
2017-12-03T11:35:08.044Z,3.03
2017-12-03T11:37:35.564Z,3.10
2017-12-03T11:40:03.027Z,3.12
2017-12-03T11:42:30.502Z,3.27
2017-12-03T11:44:57.991Z,3.39
2017-12-03T11:47:25.444Z,3.32
2017-12-03T11:49:52.925Z,2.89
2017-12-03T11:52:20.418Z,2.78
2017-12-03T11:54:47.937Z,3.07
2017-12-03T11:57:15.406Z,3.03
2017-12-03T11:59:42.879Z,2.81
2017-12-03T12:02:10.387Z,2.81
2017-12-03T12:04:37.886Z,2.84
2017-12-03T12:07:05.414Z,2.89
2017-12-03T12:09:32.892Z,2.81
2017-12-03T12:12:00.340Z,2.67
2017-12-03T12:14:27.840Z,2.83
2017-12-03T12:16:55.501Z,2.95
2017-12-03T12:19:22.973Z,2.79
2017-12-03T12:21:50.463Z,2.72
2017-12-03T12:24:18.251Z,2.75
2017-12-03T12:26:45.863Z,2.75
2017-12-03T12:29:13.319Z,2.50
2017-12-03T12:31:40.838Z,2.43
2017-12-03T12:34:08.311Z,2.50
2017-12-03T12:36:35.824Z,2.55
2017-12-03T12:39:04.262Z,2.45
2017-12-03T12:41:31.793Z,2.49
2017-12-03T12:44:07.350Z,2.35
2017-12-03T12:46:35.540Z,2.46
2017-12-03T12:49:03.107Z,2.46
2017-12-03T12:51:30.628Z,2.44
2017-12-03T12:53:58.544Z,2.61
2017-12-03T12:56:26.105Z,2.57
2017-12-03T12:58:55.018Z,2.49
2017-12-03T13:01:22.491Z,2.40
2017-12-03T13:03:50.013Z,2.36
2017-12-03T13:06:17.510Z,2.46
2017-12-03T13:08:44.986Z,2.45
2017-12-03T13:11:12.537Z,2.52
2017-12-03T13:13:40.073Z,2.47
2017-12-03T13:16:07.609Z,2.38
2017-12-03T13:18:35.125Z,2.33
2017-12-03T13:21:02.685Z,2.26
2017-12-03T13:23:30.206Z,2.28
2017-12-03T13:25:57.737Z,2.28
2017-12-03T13:28:25.354Z,2.27
2017-12-03T13:30:52.860Z,2.37
2017-12-03T13:33:20.435Z,2.37
2017-12-03T13:35:47.929Z,2.36
2017-12-03T13:38:15.445Z,2.32
2017-12-03T13:40:42.944Z,2.30
2017-12-03T13:43:10.511Z,2.33
2017-12-03T13:45:37.984Z,2.23
2017-12-03T13:48:05.560Z,2.26
2017-12-03T13:50:33.789Z,2.35
2017-12-03T13:53:01.257Z,2.42
2017-12-03T13:55:28.811Z,2.25
2017-12-03T13:57:57.798Z,2.28
2017-12-03T14:00:27.212Z,2.31
2017-12-03T14:02:54.742Z,2.23
2017-12-03T14:05:23.277Z,2.30
2017-12-03T14:07:51.005Z,2.31
2017-12-03T14:10:18.786Z,2.36
2017-12-03T14:12:48.359Z,2.40
2017-12-03T14:15:16.111Z,2.34
2017-12-03T14:17:43.609Z,2.43
2017-12-03T14:20:14.791Z,2.41
2017-12-03T14:22:42.313Z,2.38
2017-12-03T14:25:09.939Z,2.30
2017-12-03T14:27:37.564Z,2.26
2017-12-03T14:30:05.089Z,2.19
2017-12-03T14:32:32.843Z,2.25
2017-12-03T14:35:00.318Z,2.22
2017-12-03T14:37:27.803Z,2.18
2017-12-03T14:39:57.057Z,2.11
2017-12-03T14:42:29.038Z,2.10
2017-12-03T14:44:56.759Z,2.08
2017-12-03T14:47:24.358Z,2.02
2017-12-03T14:49:51.863Z,1.90
2017-12-03T14:52:19.447Z,1.97
2017-12-03T14:54:46.932Z,1.97
2017-12-03T14:57:14.734Z,1.92
2017-12-03T14:59:42.702Z,1.97
2017-12-03T15:02:10.274Z,1.94
2017-12-03T15:04:37.861Z,1.93
2017-12-03T15:07:05.348Z,1.92
2017-12-03T15:09:33.587Z,1.88
2017-12-03T15:12:01.193Z,1.86
2017-12-03T15:14:28.853Z,1.84
2017-12-03T15:16:56.523Z,1.78
2017-12-03T15:19:26.252Z,1.74
2017-12-03T15:21:54.788Z,1.81
2017-12-03T15:24:22.307Z,1.77
2017-12-03T15:26:50.076Z,1.76
2017-12-03T15:29:19.445Z,1.72
2017-12-03T15:31:46.955Z,1.62
2017-12-03T15:34:14.642Z,1.54
2017-12-03T15:36:42.678Z,1.54
2017-12-03T15:39:10.184Z,1.47
2017-12-03T15:41:37.751Z,1.59
2017-12-03T15:44:05.215Z,1.54
2017-12-03T15:46:32.776Z,1.58
2017-12-03T15:49:03.388Z,1.61
2017-12-03T15:51:30.976Z,1.56
2017-12-03T15:53:58.636Z,1.57
2017-12-03T15:56:26.208Z,1.63
2017-12-03T15:58:53.708Z,1.62
2017-12-03T16:01:22.042Z,1.64
2017-12-03T16:03:49.809Z,1.66
2017-12-03T16:06:17.327Z,1.58
2017-12-03T16:08:44.944Z,1.59
2017-12-03T16:11:12.747Z,1.64
2017-12-03T16:13:40.285Z,1.68
2017-12-03T16:16:08.309Z,1.66
2017-12-03T16:18:35.978Z,1.78
2017-12-03T16:21:03.537Z,1.77
2017-12-03T16:23:31.042Z,1.67
2017-12-03T16:25:58.553Z,1.64
2017-12-03T16:28:26.084Z,1.69
2017-12-03T16:30:53.571Z,1.60
2017-12-03T16:33:21.079Z,1.63
2017-12-03T16:35:48.552Z,1.55
2017-12-03T16:38:16.318Z,1.54
2017-12-03T16:40:43.935Z,1.63
2017-12-03T16:43:11.714Z,1.54
2017-12-03T16:45:39.265Z,1.53
2017-12-03T16:48:06.747Z,1.51
2017-12-03T16:50:34.298Z,1.55
2017-12-03T16:53:01.793Z,1.46
2017-12-03T16:55:29.274Z,1.52
2017-12-03T16:57:56.821Z,1.56
2017-12-03T17:00:24.526Z,1.53
2017-12-03T17:02:52.064Z,1.56
2017-12-03T17:05:19.607Z,1.54
2017-12-03T17:07:47.146Z,1.51
2017-12-03T17:10:19.132Z,1.53
2017-12-03T17:12:47.486Z,1.40
2017-12-03T17:15:15.255Z,1.37
2017-12-03T17:17:42.796Z,1.41
2017-12-03T17:20:10.313Z,1.41
2017-12-03T17:22:37.834Z,1.55
2017-12-03T17:25:05.328Z,1.46
2017-12-03T17:27:32.904Z,1.56
2017-12-03T17:30:00.382Z,1.52
2017-12-03T17:32:28.088Z,1.51
2017-12-03T17:34:55.768Z,1.48
2017-12-03T17:37:23.252Z,1.52
2017-12-03T17:39:50.741Z,1.50
2017-12-03T17:42:18.248Z,1.46
2017-12-03T17:44:45.745Z,1.39
2017-12-03T17:47:13.216Z,1.49
2017-12-03T17:49:40.719Z,1.44
2017-12-03T17:52:08.208Z,1.49
2017-12-03T17:54:35.700Z,1.47
2017-12-03T17:57:03.228Z,1.39
2017-12-03T17:59:30.711Z,1.40
2017-12-03T18:01:58.201Z,1.34
2017-12-03T18:04:25.680Z,1.34
2017-12-03T18:06:53.227Z,1.40
2017-12-03T18:09:26.424Z,1.39
2017-12-03T18:11:54.376Z,1.37
2017-12-03T18:14:21.865Z,1.36
2017-12-03T18:16:49.400Z,1.32
2017-12-03T18:19:16.883Z,1.29
2017-12-03T18:21:44.404Z,1.25
2017-12-03T18:24:11.886Z,1.29
2017-12-03T18:26:39.414Z,1.25
2017-12-03T18:29:07.381Z,1.23
2017-12-03T18:31:34.876Z,1.28
2017-12-03T18:34:02.370Z,1.23
2017-12-03T18:36:29.894Z,1.27
2017-12-03T18:38:57.460Z,1.27
2017-12-03T18:41:24.934Z,1.28
2017-12-03T18:43:52.427Z,1.20
2017-12-03T18:46:19.942Z,1.13
2017-12-03T18:48:47.457Z,1.18
2017-12-03T18:51:15.239Z,1.20
2017-12-03T18:53:42.791Z,1.31
2017-12-03T18:56:10.268Z,1.29
2017-12-03T18:58:37.771Z,1.25
2017-12-03T19:01:13.286Z,1.23
2017-12-03T19:03:40.821Z,1.24
2017-12-03T19:06:08.369Z,1.29
2017-12-03T19:08:35.850Z,1.23
2017-12-03T19:11:03.357Z,1.25
2017-12-03T19:13:30.913Z,1.20
2017-12-03T19:15:58.436Z,1.24
2017-12-03T19:18:25.964Z,1.23
2017-12-03T19:20:55.104Z,1.30
2017-12-03T19:23:22.654Z,1.17
2017-12-03T19:25:50.141Z,1.23
2017-12-03T19:28:17.744Z,1.20
2017-12-03T19:30:45.223Z,1.19
2017-12-03T19:33:12.783Z,1.31
2017-12-03T19:35:40.316Z,1.32
2017-12-03T19:38:07.843Z,1.17
2017-12-03T19:40:35.375Z,1.25
2017-12-03T19:43:02.939Z,1.21
2017-12-03T19:45:30.419Z,1.19
2017-12-03T19:47:57.955Z,1.19
2017-12-03T19:50:25.432Z,1.32
2017-12-03T19:52:52.916Z,1.19
2017-12-03T19:55:20.432Z,1.15
2017-12-03T19:57:47.905Z,1.22
2017-12-03T20:00:15.371Z,1.13
2017-12-03T20:02:42.880Z,1.22
2017-12-03T20:05:10.365Z,1.17
2017-12-03T20:07:37.836Z,1.19
2017-12-03T20:10:05.392Z,1.10
2017-12-03T20:12:33.673Z,1.12
2017-12-03T20:15:01.785Z,1.12
2017-12-03T20:17:29.299Z,1.25
2017-12-03T20:19:56.767Z,1.25
2017-12-03T20:22:24.247Z,1.17
2017-12-03T20:24:51.758Z,1.20
2017-12-03T20:27:19.243Z,1.18
2017-12-03T20:29:46.724Z,1.19
2017-12-03T20:32:14.769Z,1.03
2017-12-03T20:34:42.311Z,1.04
2017-12-03T20:37:09.807Z,1.04
2017-12-03T20:39:37.334Z,1.03
2017-12-03T20:42:04.897Z,1.04
2017-12-03T20:44:32.805Z,1.12
2017-12-03T20:47:00.317Z,1.12
2017-12-03T20:49:29.357Z,1.02
2017-12-03T20:51:56.903Z,0.99
2017-12-03T20:54:24.688Z,1.04
2017-12-03T20:56:52.294Z,1.07
2017-12-03T20:59:20.651Z,1.09
2017-12-03T21:01:48.205Z,1.14
2017-12-03T21:04:16.693Z,1.19
2017-12-03T21:06:44.444Z,1.19
2017-12-03T21:09:11.947Z,1.16
2017-12-03T21:11:39.501Z,1.20
2017-12-03T21:14:06.992Z,1.26
2017-12-03T21:16:34.495Z,1.21
2017-12-03T21:21:39.488Z,1.29
2017-12-03T21:25:54.541Z,1.27
2017-12-03T21:31:25.511Z,1.33
2017-12-03T21:33:52.975Z,1.28
2017-12-03T21:36:20.592Z,1.28
2017-12-03T21:51:38.211Z,1.35
2017-12-03T21:54:05.857Z,1.41
2017-12-03T21:56:34.440Z,1.29
2017-12-03T21:59:03.204Z,1.32
2017-12-03T22:01:30.893Z,1.32
2017-12-03T22:03:58.659Z,1.34
2017-12-03T22:06:26.604Z,1.39
2017-12-03T22:08:54.346Z,1.35
2017-12-03T22:11:21.808Z,1.41
2017-12-03T22:13:49.309Z,1.49
2017-12-03T22:16:16.828Z,1.49
2017-12-03T22:18:53.466Z,1.54
2017-12-03T22:21:21.922Z,1.55
2017-12-03T22:29:25.563Z,1.68
2017-12-03T22:31:53.777Z,1.62
2017-12-03T22:36:54.683Z,1.71
2017-12-03T22:39:23.001Z,1.77
2017-12-03T22:41:51.061Z,1.73
2017-12-03T22:44:18.626Z,1.66
2017-12-03T22:46:49.583Z,1.66
2017-12-03T22:49:18.788Z,1.76
2017-12-03T22:54:20.181Z,1.70
2017-12-03T22:56:48.204Z,1.76
2017-12-03T22:59:17.783Z,1.81
2017-12-03T23:01:45.374Z,1.75
2017-12-03T23:04:20.389Z,1.78
2017-12-03T23:06:48.169Z,1.73
2017-12-03T23:09:23.099Z,1.72
2017-12-03T23:25:05.018Z,1.67
2017-12-03T23:30:36.925Z,1.67
2017-12-03T23:33:06.153Z,1.69
2017-12-03T23:35:34.453Z,1.71
2017-12-03T23:41:05.233Z,1.73
2017-12-03T23:43:32.830Z,1.71
2017-12-03T23:46:00.843Z,1.56
2017-12-03T23:48:28.535Z,1.59
2017-12-03T23:50:56.015Z,1.54
2017-12-03T23:53:42.768Z,1.69
2017-12-03T23:56:10.907Z,1.64
2017-12-03T23:58:39.141Z,1.56
